sensor_id;sensor_type;location;lat;lon;timestamp;temperature;humidity
35129;DHT22;21301;43.626;10.580;2022-10-23T00:03:52;18.70;99.90
35129;DHT22;21301;43.626;10.580;2022-10-23T00:06:18;18.70;99.90
35129;DHT22;21301;43.626;10.580;2022-10-23T00:08:48;18.60;99.90
35129;DHT22;21301;43.626;10.580;2022-10-23T00:11:17;18.60;99.90
35129;DHT22;21301;43.626;10.580;2022-10-23T00:13:44;18.50;99.90
35129;DHT22;21301;43.626;10.580;2022-10-23T00:16:10;18.50;99.90
35129;DHT22;21301;43.626;10.580;2022-10-23T00:18:37;18.50;99.90
35129;DHT22;21301;43.626;10.580;2022-10-23T00:21:05;18.40;99.90
35129;DHT22;21301;43.626;10.580;2022-10-23T00:23:31;18.50;99.90
35129;DHT22;21301;43.626;10.580;2022-10-23T00:25:56;18.50;99.90
35129;DHT22;21301;43.626;10.580;2022-10-23T00:28:24;18.50;99.90
35129;DHT22;21301;43.626;10.580;2022-10-23T00:30:50;18.50;99.90
35129;DHT22;21301;43.626;10.580;2022-10-23T00:33:15;18.40;99.90
35129;DHT22;21301;43.626;10.580;2022-10-23T00:35:41;18.30;99.90
35129;DHT22;21301;43.626;10.580;2022-10-23T00:38:08;18.30;99.90
35129;DHT22;21301;43.626;10.580;2022-10-23T00:40:35;18.20;99.90
35129;DHT22;21301;43.626;10.580;2022-10-23T00:43:01;18.20;99.90
35129;DHT22;21301;43.626;10.580;2022-10-23T00:45:30;18.20;99.90
35129;DHT22;21301;43.626;10.580;2022-10-23T00:47:59;18.10;99.90
35129;DHT22;21301;43.626;10.580;2022-10-23T00:50:27;18.20;99.90
35129;DHT22;21301;43.626;10.580;2022-10-23T00:52:55;18.20;99.90
35129;DHT22;21301;43.626;10.580;2022-10-23T00:55:22;18.20;99.90
35129;DHT22;21301;43.626;10.580;2022-10-23T00:57:50;18.20;99.90
35129;DHT22;21301;43.626;10.580;2022-10-23T01:00:20;18.20;99.90
35129;DHT22;21301;43.626;10.580;2022-10-23T01:02:47;18.10;99.90
35129;DHT22;21301;43.626;10.580;2022-10-23T01:05:13;18.10;99.90
35129;DHT22;21301;43.626;10.580;2022-10-23T01:07:45;18.10;99.90
35129;DHT22;21301;43.626;10.580;2022-10-23T01:10:31;18.10;99.90
35129;DHT22;21301;43.626;10.580;2022-10-23T01:13:05;18.10;99.90
35129;DHT22;21301;43.626;10.580;2022-10-23T01:15:46;18.10;99.90
35129;DHT22;21301;43.626;10.580;2022-10-23T01:27:31;18.10;99.90
35129;DHT22;21301;43.626;10.580;2022-10-23T01:30:14;18.10;99.90
35129;DHT22;21301;43.626;10.580;2022-10-23T01:35:22;18.10;99.90
35129;DHT22;21301;43.626;10.580;2022-10-23T01:40:33;18.10;99.90
35129;DHT22;21301;43.626;10.580;2022-10-23T01:43:13;18.10;99.90
35129;DHT22;21301;43.626;10.580;2022-10-23T01:45:47;18.10;99.90
35129;DHT22;21301;43.626;10.580;2022-10-23T01:48:21;18.10;99.90
35129;DHT22;21301;43.626;10.580;2022-10-23T01:50:49;18.10;99.90
35129;DHT22;21301;43.626;10.580;2022-10-23T01:53:17;18.10;99.90
35129;DHT22;21301;43.626;10.580;2022-10-23T01:55:43;18.10;99.90
35129;DHT22;21301;43.626;10.580;2022-10-23T01:58:18;18.10;99.90
35129;DHT22;21301;43.626;10.580;2022-10-23T02:00:46;18.00;99.90
35129;DHT22;21301;43.626;10.580;2022-10-23T02:03:15;18.10;99.90
35129;DHT22;21301;43.626;10.580;2022-10-23T02:05:42;18.00;99.90
35129;DHT22;21301;43.626;10.580;2022-10-23T02:08:08;18.00;99.90
35129;DHT22;21301;43.626;10.580;2022-10-23T02:13:17;18.00;99.90
35129;DHT22;21301;43.626;10.580;2022-10-23T02:16:09;18.10;99.90
35129;DHT22;21301;43.626;10.580;2022-10-23T02:24:31;18.10;99.90
35129;DHT22;21301;43.626;10.580;2022-10-23T02:27:06;18.10;99.90
35129;DHT22;21301;43.626;10.580;2022-10-23T02:29:39;18.10;99.90
35129;DHT22;21301;43.626;10.580;2022-10-23T02:32:08;18.10;99.90
35129;DHT22;21301;43.626;10.580;2022-10-23T02:34:34;18.10;99.90
35129;DHT22;21301;43.626;10.580;2022-10-23T02:37:01;18.10;99.90
35129;DHT22;21301;43.626;10.580;2022-10-23T02:39:28;18.10;99.90
35129;DHT22;21301;43.626;10.580;2022-10-23T02:49:57;18.20;99.90
35129;DHT22;21301;43.626;10.580;2022-10-23T02:52:35;18.20;99.90
35129;DHT22;21301;43.626;10.580;2022-10-23T03:04:15;18.10;99.90
35129;DHT22;21301;43.626;10.580;2022-10-23T03:06:41;18.10;99.90
35129;DHT22;21301;43.626;10.580;2022-10-23T03:09:14;18.10;99.90
35129;DHT22;21301;43.626;10.580;2022-10-23T03:11:39;18.10;99.90
35129;DHT22;21301;43.626;10.580;2022-10-23T03:14:05;18.10;99.90
35129;DHT22;21301;43.626;10.580;2022-10-23T03:16:31;18.10;99.90
35129;DHT22;21301;43.626;10.580;2022-10-23T03:18:57;18.10;99.90
35129;DHT22;21301;43.626;10.580;2022-10-23T03:21:23;18.10;99.90
35129;DHT22;21301;43.626;10.580;2022-10-23T03:23:51;18.10;99.90
35129;DHT22;21301;43.626;10.580;2022-10-23T03:26:23;18.10;99.90
35129;DHT22;21301;43.626;10.580;2022-10-23T03:28:48;18.10;99.90
35129;DHT22;21301;43.626;10.580;2022-10-23T03:31:17;18.10;99.90
35129;DHT22;21301;43.626;10.580;2022-10-23T03:33:44;18.10;99.90
35129;DHT22;21301;43.626;10.580;2022-10-23T03:36:11;18.10;99.90
35129;DHT22;21301;43.626;10.580;2022-10-23T03:38:37;18.10;99.90
35129;DHT22;21301;43.626;10.580;2022-10-23T03:41:04;18.10;99.90
35129;DHT22;21301;43.626;10.580;2022-10-23T03:43:29;18.10;99.90
35129;DHT22;21301;43.626;10.580;2022-10-23T03:45:55;18.20;99.90
35129;DHT22;21301;43.626;10.580;2022-10-23T03:48:24;18.20;99.90
35129;DHT22;21301;43.626;10.580;2022-10-23T03:50:52;18.20;99.90
35129;DHT22;21301;43.626;10.580;2022-10-23T03:53:18;18.20;99.90
35129;DHT22;21301;43.626;10.580;2022-10-23T03:55:44;18.20;99.90
35129;DHT22;21301;43.626;10.580;2022-10-23T03:58:10;18.20;99.90
35129;DHT22;21301;43.626;10.580;2022-10-23T04:00:35;18.10;99.90
35129;DHT22;21301;43.626;10.580;2022-10-23T04:03:01;18.10;99.90
35129;DHT22;21301;43.626;10.580;2022-10-23T04:05:27;18.20;99.90
35129;DHT22;21301;43.626;10.580;2022-10-23T04:07:56;18.20;99.90
35129;DHT22;21301;43.626;10.580;2022-10-23T04:10:22;18.20;99.90
35129;DHT22;21301;43.626;10.580;2022-10-23T04:12:48;18.30;99.90
35129;DHT22;21301;43.626;10.580;2022-10-23T04:15:14;18.30;99.90
35129;DHT22;21301;43.626;10.580;2022-10-23T04:17:44;18.30;99.90
35129;DHT22;21301;43.626;10.580;2022-10-23T04:20:10;18.40;99.90
35129;DHT22;21301;43.626;10.580;2022-10-23T04:22:36;18.30;99.90
35129;DHT22;21301;43.626;10.580;2022-10-23T04:25:02;18.30;99.90
35129;DHT22;21301;43.626;10.580;2022-10-23T04:27:30;18.50;99.90
35129;DHT22;21301;43.626;10.580;2022-10-23T04:29:56;18.50;99.90
35129;DHT22;21301;43.626;10.580;2022-10-23T04:32:22;18.60;99.90
35129;DHT22;21301;43.626;10.580;2022-10-23T04:34:47;18.70;99.90
35129;DHT22;21301;43.626;10.580;2022-10-23T04:37:13;18.60;99.90
35129;DHT22;21301;43.626;10.580;2022-10-23T04:39:42;18.60;99.90
35129;DHT22;21301;43.626;10.580;2022-10-23T04:42:11;18.70;99.90
35129;DHT22;21301;43.626;10.580;2022-10-23T04:44:37;18.60;99.90
35129;DHT22;21301;43.626;10.580;2022-10-23T04:47:03;18.60;99.90
35129;DHT22;21301;43.626;10.580;2022-10-23T04:49:30;18.60;99.90
35129;DHT22;21301;43.626;10.580;2022-10-23T04:52:14;18.60;99.90
35129;DHT22;21301;43.626;10.580;2022-10-23T04:55:06;18.60;99.90
35129;DHT22;21301;43.626;10.580;2022-10-23T04:57:41;18.60;99.90
35129;DHT22;21301;43.626;10.580;2022-10-23T05:00:12;18.60;99.90
35129;DHT22;21301;43.626;10.580;2022-10-23T05:02:49;18.60;99.90
35129;DHT22;21301;43.626;10.580;2022-10-23T05:05:16;18.60;99.90
35129;DHT22;21301;43.626;10.580;2022-10-23T05:07:58;18.60;99.90
35129;DHT22;21301;43.626;10.580;2022-10-23T05:10:43;18.60;99.90
35129;DHT22;21301;43.626;10.580;2022-10-23T05:13:14;18.50;99.90
35129;DHT22;21301;43.626;10.580;2022-10-23T05:15:40;18.60;99.90
35129;DHT22;21301;43.626;10.580;2022-10-23T05:21:00;18.60;99.90
35129;DHT22;21301;43.626;10.580;2022-10-23T05:23:27;18.60;99.90
35129;DHT22;21301;43.626;10.580;2022-10-23T05:25:58;18.60;99.90
35129;DHT22;21301;43.626;10.580;2022-10-23T05:28:24;18.60;99.90
35129;DHT22;21301;43.626;10.580;2022-10-23T05:30:50;18.60;99.90
35129;DHT22;21301;43.626;10.580;2022-10-23T05:33:16;18.50;99.90
35129;DHT22;21301;43.626;10.580;2022-10-23T05:35:44;18.60;99.90
35129;DHT22;21301;43.626;10.580;2022-10-23T05:38:12;18.60;99.90
35129;DHT22;21301;43.626;10.580;2022-10-23T05:40:39;18.60;99.90
35129;DHT22;21301;43.626;10.580;2022-10-23T05:43:07;18.60;99.90
35129;DHT22;21301;43.626;10.580;2022-10-23T05:45:56;18.60;99.90
35129;DHT22;21301;43.626;10.580;2022-10-23T05:48:32;18.70;99.90
35129;DHT22;21301;43.626;10.580;2022-10-23T05:51:20;18.70;99.90
35129;DHT22;21301;43.626;10.580;2022-10-23T05:53:58;18.60;99.90
35129;DHT22;21301;43.626;10.580;2022-10-23T05:56:54;18.50;99.90
35129;DHT22;21301;43.626;10.580;2022-10-23T05:59:32;18.50;99.90
35129;DHT22;21301;43.626;10.580;2022-10-23T06:02:18;18.50;99.90
35129;DHT22;21301;43.626;10.580;2022-10-23T06:04:52;18.40;99.90
35129;DHT22;21301;43.626;10.580;2022-10-23T06:07:47;18.30;99.90
35129;DHT22;21301;43.626;10.580;2022-10-23T06:10:13;18.20;99.90
35129;DHT22;21301;43.626;10.580;2022-10-23T06:12:43;18.20;99.90
35129;DHT22;21301;43.626;10.580;2022-10-23T06:15:13;18.10;99.90
35129;DHT22;21301;43.626;10.580;2022-10-23T06:18:04;18.10;99.90
35129;DHT22;21301;43.626;10.580;2022-10-23T06:20:37;18.20;99.90
35129;DHT22;21301;43.626;10.580;2022-10-23T06:23:09;18.30;99.90
35129;DHT22;21301;43.626;10.580;2022-10-23T06:25:53;18.40;99.90
35129;DHT22;21301;43.626;10.580;2022-10-23T06:28:28;18.50;99.90
35129;DHT22;21301;43.626;10.580;2022-10-23T06:30:54;18.50;99.90
35129;DHT22;21301;43.626;10.580;2022-10-23T06:33:20;18.60;99.90
35129;DHT22;21301;43.626;10.580;2022-10-23T06:35:47;18.70;99.90
35129;DHT22;21301;43.626;10.580;2022-10-23T06:38:13;18.70;99.90
35129;DHT22;21301;43.626;10.580;2022-10-23T06:40:59;18.80;99.90
35129;DHT22;21301;43.626;10.580;2022-10-23T06:43:32;18.90;99.90
35129;DHT22;21301;43.626;10.580;2022-10-23T06:46:16;19.00;99.90
35129;DHT22;21301;43.626;10.580;2022-10-23T06:49:03;19.10;99.90
35129;DHT22;21301;43.626;10.580;2022-10-23T06:51:33;19.10;99.90
35129;DHT22;21301;43.626;10.580;2022-10-23T06:54:04;19.30;99.90
35129;DHT22;21301;43.626;10.580;2022-10-23T06:56:59;19.50;99.90
35129;DHT22;21301;43.626;10.580;2022-10-23T06:59:40;19.70;99.90
35129;DHT22;21301;43.626;10.580;2022-10-23T07:02:08;19.80;99.90
35129;DHT22;21301;43.626;10.580;2022-10-23T07:04:34;19.90;99.90
35129;DHT22;21301;43.626;10.580;2022-10-23T07:07:03;20.10;99.90
35129;DHT22;21301;43.626;10.580;2022-10-23T07:09:40;20.30;99.90
35129;DHT22;21301;43.626;10.580;2022-10-23T07:12:27;20.40;99.90
35129;DHT22;21301;43.626;10.580;2022-10-23T07:15:14;20.50;99.90
35129;DHT22;21301;43.626;10.580;2022-10-23T07:17:40;20.60;99.90
35129;DHT22;21301;43.626;10.580;2022-10-23T07:20:06;20.70;99.90
35129;DHT22;21301;43.626;10.580;2022-10-23T07:22:33;20.90;99.90
35129;DHT22;21301;43.626;10.580;2022-10-23T07:25:09;21.10;99.90
35129;DHT22;21301;43.626;10.580;2022-10-23T07:27:37;21.10;99.90
35129;DHT22;21301;43.626;10.580;2022-10-23T07:30:06;21.10;99.90
35129;DHT22;21301;43.626;10.580;2022-10-23T07:32:39;21.20;99.90
35129;DHT22;21301;43.626;10.580;2022-10-23T07:35:25;21.30;99.90
35129;DHT22;21301;43.626;10.580;2022-10-23T07:38:01;21.50;99.90
35129;DHT22;21301;43.626;10.580;2022-10-23T07:40:31;21.60;99.90
35129;DHT22;21301;43.626;10.580;2022-10-23T07:42:57;21.60;99.90
35129;DHT22;21301;43.626;10.580;2022-10-23T07:45:23;21.60;99.90
35129;DHT22;21301;43.626;10.580;2022-10-23T07:47:49;21.60;99.90
35129;DHT22;21301;43.626;10.580;2022-10-23T07:50:17;21.70;99.90
35129;DHT22;21301;43.626;10.580;2022-10-23T07:52:43;22.00;99.90
35129;DHT22;21301;43.626;10.580;2022-10-23T07:55:11;22.10;99.90
35129;DHT22;21301;43.626;10.580;2022-10-23T07:57:45;22.20;99.90
35129;DHT22;21301;43.626;10.580;2022-10-23T08:00:33;22.30;99.90
35129;DHT22;21301;43.626;10.580;2022-10-23T08:03:10;22.40;99.90
35129;DHT22;21301;43.626;10.580;2022-10-23T08:05:38;22.60;99.90
35129;DHT22;21301;43.626;10.580;2022-10-23T08:08:04;22.60;99.90
35129;DHT22;21301;43.626;10.580;2022-10-23T08:10:30;22.80;99.90
35129;DHT22;21301;43.626;10.580;2022-10-23T08:12:57;23.00;99.90
35129;DHT22;21301;43.626;10.580;2022-10-23T08:15:41;23.10;99.90
35129;DHT22;21301;43.626;10.580;2022-10-23T08:18:23;23.30;99.90
35129;DHT22;21301;43.626;10.580;2022-10-23T08:20:49;23.30;99.90
35129;DHT22;21301;43.626;10.580;2022-10-23T08:23:18;23.30;99.90
35129;DHT22;21301;43.626;10.580;2022-10-23T08:25:45;23.30;99.90
35129;DHT22;21301;43.626;10.580;2022-10-23T08:28:13;23.30;99.90
35129;DHT22;21301;43.626;10.580;2022-10-23T08:30:49;23.30;99.90
35129;DHT22;21301;43.626;10.580;2022-10-23T08:33:16;23.50;99.90
35129;DHT22;21301;43.626;10.580;2022-10-23T08:35:43;23.60;99.90
35129;DHT22;21301;43.626;10.580;2022-10-23T08:38:09;23.80;99.90
35129;DHT22;21301;43.626;10.580;2022-10-23T08:40:45;23.80;99.90
35129;DHT22;21301;43.626;10.580;2022-10-23T08:43:48;23.90;99.90
35129;DHT22;21301;43.626;10.580;2022-10-23T08:46:48;23.90;99.90
35129;DHT22;21301;43.626;10.580;2022-10-23T08:52:04;24.40;99.90
35129;DHT22;21301;43.626;10.580;2022-10-23T08:54:46;24.40;99.90
35129;DHT22;21301;43.626;10.580;2022-10-23T08:57:17;24.30;99.90
35129;DHT22;21301;43.626;10.580;2022-10-23T08:59:57;24.10;99.90
35129;DHT22;21301;43.626;10.580;2022-10-23T09:02:27;24.10;99.90
35129;DHT22;21301;43.626;10.580;2022-10-23T09:04:56;24.20;99.90
35129;DHT22;21301;43.626;10.580;2022-10-23T09:12:48;24.00;99.90
35129;DHT22;21301;43.626;10.580;2022-10-23T09:15:19;23.80;99.90
35129;DHT22;21301;43.626;10.580;2022-10-23T09:17:52;23.60;99.90
35129;DHT22;21301;43.626;10.580;2022-10-23T09:22:54;23.40;99.90
35129;DHT22;21301;43.626;10.580;2022-10-23T09:25:29;23.40;99.90
35129;DHT22;21301;43.626;10.580;2022-10-23T09:27:58;23.40;99.90
35129;DHT22;21301;43.626;10.580;2022-10-23T09:33:00;23.40;99.90
35129;DHT22;21301;43.626;10.580;2022-10-23T09:35:36;23.40;99.90
35129;DHT22;21301;43.626;10.580;2022-10-23T09:38:02;23.60;99.90
35129;DHT22;21301;43.626;10.580;2022-10-23T09:40:40;23.60;99.90
35129;DHT22;21301;43.626;10.580;2022-10-23T09:43:15;23.60;99.90
35129;DHT22;21301;43.626;10.580;2022-10-23T09:45:42;23.60;99.90
35129;DHT22;21301;43.626;10.580;2022-10-23T09:48:15;23.90;99.90
35129;DHT22;21301;43.626;10.580;2022-10-23T09:50:48;24.10;99.90
35129;DHT22;21301;43.626;10.580;2022-10-23T09:53:17;24.30;99.90
35129;DHT22;21301;43.626;10.580;2022-10-23T09:55:53;24.30;99.90
35129;DHT22;21301;43.626;10.580;2022-10-23T09:58:27;24.30;99.90
35129;DHT22;21301;43.626;10.580;2022-10-23T10:00:54;24.30;99.90
35129;DHT22;21301;43.626;10.580;2022-10-23T10:03:36;24.40;99.90
35129;DHT22;21301;43.626;10.580;2022-10-23T10:06:23;24.30;99.90
35129;DHT22;21301;43.626;10.580;2022-10-23T10:08:52;24.10;99.90
35129;DHT22;21301;43.626;10.580;2022-10-23T10:11:43;23.90;99.90
35129;DHT22;21301;43.626;10.580;2022-10-23T10:16:59;23.80;99.90
35129;DHT22;21301;43.626;10.580;2022-10-23T10:30:33;24.10;99.90
35129;DHT22;21301;43.626;10.580;2022-10-23T10:33:11;24.10;99.90
35129;DHT22;21301;43.626;10.580;2022-10-23T10:38:26;24.40;99.90
35129;DHT22;21301;43.626;10.580;2022-10-23T10:43:54;24.50;99.90
35129;DHT22;21301;43.626;10.580;2022-10-23T10:46:35;24.40;99.90
35129;DHT22;21301;43.626;10.580;2022-10-23T10:49:37;24.40;99.90
35129;DHT22;21301;43.626;10.580;2022-10-23T10:54:55;24.30;99.90
35129;DHT22;21301;43.626;10.580;2022-10-23T10:57:37;24.50;99.90
35129;DHT22;21301;43.626;10.580;2022-10-23T11:08:04;24.50;99.90
35129;DHT22;21301;43.626;10.580;2022-10-23T11:10:32;24.60;99.90
35129;DHT22;21301;43.626;10.580;2022-10-23T11:13:00;24.40;99.90
35129;DHT22;21301;43.626;10.580;2022-10-23T11:15:39;24.40;99.90
35129;DHT22;21301;43.626;10.580;2022-10-23T11:18:20;24.30;99.90
35129;DHT22;21301;43.626;10.580;2022-10-23T11:20:57;24.30;99.90
35129;DHT22;21301;43.626;10.580;2022-10-23T11:23:47;24.40;99.90
35129;DHT22;21301;43.626;10.580;2022-10-23T11:34:38;24.70;99.90
35129;DHT22;21301;43.626;10.580;2022-10-23T11:37:15;24.70;99.90
35129;DHT22;21301;43.626;10.580;2022-10-23T11:40:19;24.60;99.90
35129;DHT22;21301;43.626;10.580;2022-10-23T11:53:37;24.60;99.90
35129;DHT22;21301;43.626;10.580;2022-10-23T11:58:48;24.40;99.90
35129;DHT22;21301;43.626;10.580;2022-10-23T12:06:52;24.60;99.90
35129;DHT22;21301;43.626;10.580;2022-10-23T12:09:45;24.70;99.90
35129;DHT22;21301;43.626;10.580;2022-10-23T12:12:14;24.80;99.90
35129;DHT22;21301;43.626;10.580;2022-10-23T12:14:48;24.80;99.90
35129;DHT22;21301;43.626;10.580;2022-10-23T12:39:30;24.80;99.90
35129;DHT22;21301;43.626;10.580;2022-10-23T12:41:57;24.70;99.90
35129;DHT22;21301;43.626;10.580;2022-10-23T12:44:23;24.70;99.90
35129;DHT22;21301;43.626;10.580;2022-10-23T12:46:54;24.80;99.90
35129;DHT22;21301;43.626;10.580;2022-10-23T12:49:26;24.80;99.90
35129;DHT22;21301;43.626;10.580;2022-10-23T12:51:58;24.80;99.90
35129;DHT22;21301;43.626;10.580;2022-10-23T12:54:25;24.80;99.90
35129;DHT22;21301;43.626;10.580;2022-10-23T12:56:52;24.80;99.90
35129;DHT22;21301;43.626;10.580;2022-10-23T12:59:23;24.80;99.90
35129;DHT22;21301;43.626;10.580;2022-10-23T13:01:54;24.80;99.90
35129;DHT22;21301;43.626;10.580;2022-10-23T13:04:31;24.80;99.90
35129;DHT22;21301;43.626;10.580;2022-10-23T13:07:00;24.80;99.90
35129;DHT22;21301;43.626;10.580;2022-10-23T13:09:35;24.90;99.90
35129;DHT22;21301;43.626;10.580;2022-10-23T13:12:27;24.90;99.90
35129;DHT22;21301;43.626;10.580;2022-10-23T13:20:34;25.10;99.90
35129;DHT22;21301;43.626;10.580;2022-10-23T13:23:23;25.20;99.90
35129;DHT22;21301;43.626;10.580;2022-10-23T13:28:30;25.20;99.90
35129;DHT22;21301;43.626;10.580;2022-10-23T13:33:40;25.20;99.90
35129;DHT22;21301;43.626;10.580;2022-10-23T13:41:15;25.50;99.90
35129;DHT22;21301;43.626;10.580;2022-10-23T13:43:41;25.60;99.90
35129;DHT22;21301;43.626;10.580;2022-10-23T13:46:15;25.60;99.90
35129;DHT22;21301;43.626;10.580;2022-10-23T13:48:41;25.70;99.90
35129;DHT22;21301;43.626;10.580;2022-10-23T13:51:18;25.60;99.90
35129;DHT22;21301;43.626;10.580;2022-10-23T13:53:45;25.50;99.90
35129;DHT22;21301;43.626;10.580;2022-10-23T13:56:13;25.50;99.90
35129;DHT22;21301;43.626;10.580;2022-10-23T13:58:39;25.30;99.90
35129;DHT22;21301;43.626;10.580;2022-10-23T14:01:05;25.30;99.90
35129;DHT22;21301;43.626;10.580;2022-10-23T14:03:36;25.20;99.90
35129;DHT22;21301;43.626;10.580;2022-10-23T14:06:02;25.30;99.90
35129;DHT22;21301;43.626;10.580;2022-10-23T14:08:28;25.40;99.90
35129;DHT22;21301;43.626;10.580;2022-10-23T14:10:54;25.30;99.90
35129;DHT22;21301;43.626;10.580;2022-10-23T14:13:19;25.20;99.90
35129;DHT22;21301;43.626;10.580;2022-10-23T14:15:52;25.20;99.90
35129;DHT22;21301;43.626;10.580;2022-10-23T14:18:18;25.20;99.90
35129;DHT22;21301;43.626;10.580;2022-10-23T14:20:44;25.20;99.90
35129;DHT22;21301;43.626;10.580;2022-10-23T14:23:10;25.30;99.90
35129;DHT22;21301;43.626;10.580;2022-10-23T14:25:36;25.20;99.90
35129;DHT22;21301;43.626;10.580;2022-10-23T14:28:02;25.20;99.90
35129;DHT22;21301;43.626;10.580;2022-10-23T14:30:27;25.20;99.90
35129;DHT22;21301;43.626;10.580;2022-10-23T14:32:53;25.00;99.90
35129;DHT22;21301;43.626;10.580;2022-10-23T14:35:19;25.00;99.90
35129;DHT22;21301;43.626;10.580;2022-10-23T14:37:45;24.90;99.90
35129;DHT22;21301;43.626;10.580;2022-10-23T14:40:11;24.90;99.90
35129;DHT22;21301;43.626;10.580;2022-10-23T14:42:37;24.90;99.90
35129;DHT22;21301;43.626;10.580;2022-10-23T14:45:03;25.00;99.90
35129;DHT22;21301;43.626;10.580;2022-10-23T14:47:29;24.90;99.90
35129;DHT22;21301;43.626;10.580;2022-10-23T14:49:55;24.90;99.90
35129;DHT22;21301;43.626;10.580;2022-10-23T14:52:22;24.90;99.90
35129;DHT22;21301;43.626;10.580;2022-10-23T14:54:49;25.00;99.90
35129;DHT22;21301;43.626;10.580;2022-10-23T14:57:15;25.00;99.90
35129;DHT22;21301;43.626;10.580;2022-10-23T14:59:43;25.10;99.90
35129;DHT22;21301;43.626;10.580;2022-10-23T15:02:09;25.10;99.90
35129;DHT22;21301;43.626;10.580;2022-10-23T15:04:36;25.10;99.90
35129;DHT22;21301;43.626;10.580;2022-10-23T15:07:02;25.00;99.90
35129;DHT22;21301;43.626;10.580;2022-10-23T15:09:28;25.00;99.90
35129;DHT22;21301;43.626;10.580;2022-10-23T15:11:53;24.90;99.90
35129;DHT22;21301;43.626;10.580;2022-10-23T15:14:19;24.90;99.90
35129;DHT22;21301;43.626;10.580;2022-10-23T15:16:45;24.80;99.90
35129;DHT22;21301;43.626;10.580;2022-10-23T15:19:13;24.70;99.90
35129;DHT22;21301;43.626;10.580;2022-10-23T15:21:40;24.80;99.90
35129;DHT22;21301;43.626;10.580;2022-10-23T15:24:06;24.70;99.90
35129;DHT22;21301;43.626;10.580;2022-10-23T15:26:31;24.70;99.90
35129;DHT22;21301;43.626;10.580;2022-10-23T15:29:01;24.70;99.90
35129;DHT22;21301;43.626;10.580;2022-10-23T15:34:27;24.40;99.90
35129;DHT22;21301;43.626;10.580;2022-10-23T15:36:55;24.40;99.90
35129;DHT22;21301;43.626;10.580;2022-10-23T15:39:23;24.30;99.90
35129;DHT22;21301;43.626;10.580;2022-10-23T15:41:51;24.20;99.90
35129;DHT22;21301;43.626;10.580;2022-10-23T15:44:19;24.10;99.90
35129;DHT22;21301;43.626;10.580;2022-10-23T15:46:45;24.10;99.90
35129;DHT22;21301;43.626;10.580;2022-10-23T15:49:12;24.00;99.90
35129;DHT22;21301;43.626;10.580;2022-10-23T15:51:38;24.00;99.90
35129;DHT22;21301;43.626;10.580;2022-10-23T15:54:06;23.90;99.90
35129;DHT22;21301;43.626;10.580;2022-10-23T15:56:33;23.70;99.90
35129;DHT22;21301;43.626;10.580;2022-10-23T15:58:59;23.70;99.90
35129;DHT22;21301;43.626;10.580;2022-10-23T16:01:25;23.50;99.90
35129;DHT22;21301;43.626;10.580;2022-10-23T16:03:51;23.40;99.90
35129;DHT22;21301;43.626;10.580;2022-10-23T16:06:18;23.30;99.90
35129;DHT22;21301;43.626;10.580;2022-10-23T16:08:44;23.30;99.90
35129;DHT22;21301;43.626;10.580;2022-10-23T16:11:25;23.20;99.90
35129;DHT22;21301;43.626;10.580;2022-10-23T16:13:53;23.20;99.90
35129;DHT22;21301;43.626;10.580;2022-10-23T16:16:19;23.10;99.90
35129;DHT22;21301;43.626;10.580;2022-10-23T16:18:45;23.10;99.90
35129;DHT22;21301;43.626;10.580;2022-10-23T16:21:25;23.00;99.90
35129;DHT22;21301;43.626;10.580;2022-10-23T16:23:53;23.00;99.90
35129;DHT22;21301;43.626;10.580;2022-10-23T16:26:19;23.00;99.90
35129;DHT22;21301;43.626;10.580;2022-10-23T16:28:45;23.00;99.90
35129;DHT22;21301;43.626;10.580;2022-10-23T16:31:14;22.90;99.90
35129;DHT22;21301;43.626;10.580;2022-10-23T16:33:40;22.90;99.90
35129;DHT22;21301;43.626;10.580;2022-10-23T16:36:07;22.90;99.90
35129;DHT22;21301;43.626;10.580;2022-10-23T16:38:54;22.80;99.90
35129;DHT22;21301;43.626;10.580;2022-10-23T16:41:40;22.70;99.90
35129;DHT22;21301;43.626;10.580;2022-10-23T16:44:15;22.70;99.90
35129;DHT22;21301;43.626;10.580;2022-10-23T16:46:55;22.60;99.90
35129;DHT22;21301;43.626;10.580;2022-10-23T16:49:21;22.60;99.90
35129;DHT22;21301;43.626;10.580;2022-10-23T16:51:46;22.50;99.90
35129;DHT22;21301;43.626;10.580;2022-10-23T16:54:12;22.40;99.90
35129;DHT22;21301;43.626;10.580;2022-10-23T16:56:39;22.40;99.90
35129;DHT22;21301;43.626;10.580;2022-10-23T16:59:05;22.30;99.90
35129;DHT22;21301;43.626;10.580;2022-10-23T17:01:32;22.30;99.90
35129;DHT22;21301;43.626;10.580;2022-10-23T17:03:58;22.20;99.90
35129;DHT22;21301;43.626;10.580;2022-10-23T17:06:29;22.20;99.90
35129;DHT22;21301;43.626;10.580;2022-10-23T17:08:56;22.20;99.90
35129;DHT22;21301;43.626;10.580;2022-10-23T17:11:31;22.10;99.90
35129;DHT22;21301;43.626;10.580;2022-10-23T17:13:59;22.10;99.90
35129;DHT22;21301;43.626;10.580;2022-10-23T17:19:00;22.00;99.90
35129;DHT22;21301;43.626;10.580;2022-10-23T17:21:31;21.90;99.90
35129;DHT22;21301;43.626;10.580;2022-10-23T17:23:57;21.90;99.90
35129;DHT22;21301;43.626;10.580;2022-10-23T17:26:23;21.90;99.90
35129;DHT22;21301;43.626;10.580;2022-10-23T17:28:49;21.90;99.90
35129;DHT22;21301;43.626;10.580;2022-10-23T17:31:18;21.90;99.90
35129;DHT22;21301;43.626;10.580;2022-10-23T17:33:45;21.90;99.90
35129;DHT22;21301;43.626;10.580;2022-10-23T17:36:13;21.80;99.90
35129;DHT22;21301;43.626;10.580;2022-10-23T17:38:40;21.80;99.90
35129;DHT22;21301;43.626;10.580;2022-10-23T17:41:08;21.70;99.90
35129;DHT22;21301;43.626;10.580;2022-10-23T17:43:35;21.60;99.90
35129;DHT22;21301;43.626;10.580;2022-10-23T17:46:03;21.60;99.90
35129;DHT22;21301;43.626;10.580;2022-10-23T17:48:29;21.50;99.90
35129;DHT22;21301;43.626;10.580;2022-10-23T17:51:05;21.50;99.90
35129;DHT22;21301;43.626;10.580;2022-10-23T17:53:33;21.50;99.90
35129;DHT22;21301;43.626;10.580;2022-10-23T17:56:03;21.40;99.90
35129;DHT22;21301;43.626;10.580;2022-10-23T17:58:30;21.40;99.90
35129;DHT22;21301;43.626;10.580;2022-10-23T18:01:06;21.40;99.90
35129;DHT22;21301;43.626;10.580;2022-10-23T18:03:32;21.40;99.90
35129;DHT22;21301;43.626;10.580;2022-10-23T18:06:11;21.40;99.90
35129;DHT22;21301;43.626;10.580;2022-10-23T18:08:38;21.40;99.90
35129;DHT22;21301;43.626;10.580;2022-10-23T18:11:04;21.30;99.90
35129;DHT22;21301;43.626;10.580;2022-10-23T18:13:32;21.30;99.90
35129;DHT22;21301;43.626;10.580;2022-10-23T18:16:02;21.40;99.90
35129;DHT22;21301;43.626;10.580;2022-10-23T18:18:29;21.40;99.90